Nichioh Maru — JD3267 — position and weather

sailwx.info

Track history (hours):
 
Tides and Currents Weather Stations Pressure Air Temp Water Temp Dewpoint Dewpoint Depression Visibility Wind Speed Wind Dir Waves Ship Positions

Nichioh Maru

Last reported at 2014-Jul-31 08:28 UTC. Time now 2014-Jul-31 09:34 UTC.
Position N 34°37' E 135°16'.

Length 170 m; draft 6.5 m.

Type: Cargo ship. MMSI: 431003232.

Date/timePositionNaut miles runAvg speedWind from/ knotsBaromVisibWave heightAir tempDewpointWater temp
2014-Jul-31 08:28N 34°37' E 135°16'0 0.1
2014-Jul-31 07:29N 34°37' E 135°16'1617.1
2014-Jul-31 06:33N 34°37' E 134°57'117 9.0
2014-Jul-30 17:33N 33°58' E 132°44'20 1.3
2014-Jul-30 02:32N 34°08' E 132°23'1312.8
2014-Jul-30 01:31N 34°21' E 132°22'0 0.0
2014-Jul-30 00:28N 34°21' E 132°22'0 0.0
2014-Jul-29 23:28N 34°21' E 132°22'0 0.0
2014-Jul-29 22:31N 34°21' E 132°22'0 0.0
2014-Jul-29 21:31N 34°21' E 132°22'1 0.8
2014-Jul-29 20:33N 34°20' E 132°22'0 0.1
2014-Jul-29 19:33N 34°20' E 132°22'0 0.0
2014-Jul-29 18:33N 34°20' E 132°22'0 0.0
2014-Jul-29 17:33N 34°20' E 132°22'0 0.0
2014-Jul-29 16:33N 34°20' E 132°22'0 0.0
2014-Jul-29 15:33N 34°20' E 132°22'0 0.0
2014-Jul-29 14:33N 34°20' E 132°22'0 0.0
2014-Jul-29 13:33N 34°20' E 132°22'0 0.0
2014-Jul-29 12:33N 34°20' E 132°22'0 0.0
2014-Jul-29 11:33N 34°20' E 132°22'4 3.7
2014-Jul-29 10:34N 34°16' E 132°21'1817.1
2014-Jul-29 09:31N 34°03' E 132°35'123 4.9
2014-Jul-28 08:33N 34°37' E 134°58'1414.3
2014-Jul-28 07:34N 34°40' E 135°15'2 1.4
2014-Jul-28 06:16N 34°41' E 135°13'0 0.0
2014-Jul-28 05:28N 34°41' E 135°13'0 0.0
2014-Jul-28 04:16N 34°41' E 135°13'0 0.0
2014-Jul-28 03:22N 34°41' E 135°13'0 0.0
2014-Jul-28 02:33N 34°41' E 135°13'4 4.4
2014-Jul-28 01:33N 34°37' E 135°16'1615.6
2014-Jul-28 00:33N 34°24' E 135°05'1717.4
2014-Jul-27 23:33N 34°08' E 134°59'171 6.4
2014-Jul-26 21:03N 34°31' E 138°24'610.5
2014-Jul-26 20:27N 34°32' E 138°32'48 9.8
2014-Jul-26 15:31N 34°55' E 139°24'8 8.1
2014-Jul-26 14:33N 34°59' E 139°32'10 9.8
2014-Jul-26 13:34N 35°05' E 139°41'1110.9
2014-Jul-26 12:33N 35°15' E 139°46'1211.6
2014-Jul-26 11:33N 35°26' E 139°45'4 3.9
2014-Jul-26 10:31N 35°30' E 139°46'0 0.0
2014-Jul-26 09:31N 35°30' E 139°46'0 0.0
2014-Jul-26 08:31N 35°30' E 139°46'0 0.0
2014-Jul-26 07:31N 35°30' E 139°46'0 0.0
2014-Jul-26 06:31N 35°30' E 139°46'0 0.0
2014-Jul-26 05:33N 35°30' E 139°46'8 7.8
2014-Jul-26 04:34N 35°23' E 139°45'7 6.4
2014-Jul-26 03:32N 35°19' E 139°39'0 0.0
2014-Jul-26 02:32N 35°19' E 139°39'0 0.0
2014-Jul-26 01:32N 35°19' E 139°39'0 0.0
2014-Jul-26 00:33N 35°19' E 139°39'9 8.5
2014-Jul-25 23:33N 35°13' E 139°47'7 6.3
2014-Jul-25 22:31N 35°07' E 139°46'8 7.9
2014-Jul-25 21:33N 35°01' E 139°40'1515.1
2014-Jul-25 20:33N 34°53' E 139°25'2019.2
2014-Jul-25 19:30N 34°38' E 139°08'1818.5
2014-Jul-25 18:31N 34°27' E 138°50'19314.8
2014-Jul-25 05:30N 34°01' E 134°59'1819.1
2014-Jul-25 04:33N 34°18' E 134°59'1918.7
2014-Jul-25 03:33N 34°34' E 135°12'7 6.5
2014-Jul-25 02:32N 34°41' E 135°13'0 0.0
2014-Jul-25 01:32N 34°41' E 135°13'0 0.0
2014-Jul-25 00:32N 34°41' E 135°13'0 0.0
2014-Jul-24 23:32N 34°41' E 135°13'1 0.9
2014-Jul-24 22:33N 34°40' E 135°14'4 3.9
2014-Jul-24 21:31N 34°36' E 135°16'0 0.0
2014-Jul-24 20:28N 34°36' E 135°16'0 0.0
2014-Jul-24 19:28N 34°36' E 135°16'0 0.0
2014-Jul-24 18:25N 34°36' E 135°16'0 0.0
2014-Jul-24 17:28N 34°36' E 135°16'0 0.0
2014-Jul-24 16:28N 34°36' E 135°16'0 0.0
2014-Jul-24 15:28N 34°36' E 135°16'0 0.0
2014-Jul-24 14:34N 34°36' E 135°16'0 0.0
2014-Jul-24 12:28N 34°37' E 135°16'0 0.0
2014-Jul-24 11:28N 34°37' E 135°16'0 0.0
2014-Jul-24 10:34N 34°37' E 135°16'0 0.0
2014-Jul-24 09:33N 34°37' E 135°16'1211.7
2014-Jul-24 08:33N 34°37' E 135°02'120 9.0
2014-Jul-23 19:18N 33°59' E 132°44'2312.3
2014-Jul-23 17:26N 33°44' E 132°23'8 0.5
2014-Jul-23 03:07N 33°50' E 132°17'1219.3
2014-Jul-23 02:28N 33°57' E 132°29'1819.5
2014-Jul-23 01:33N 34°14' E 132°21'7 7.2
2014-Jul-23 00:31N 34°21' E 132°22'0 0.0
2014-Jul-22 23:31N 34°21' E 132°22'0 0.0
2014-Jul-22 22:31N 34°21' E 132°22'0 0.0
2014-Jul-22 21:31N 34°21' E 132°22'1 0.8
2014-Jul-22 20:33N 34°20' E 132°22'0 0.0
2014-Jul-22 19:33N 34°20' E 132°22'0 0.0
2014-Jul-22 18:33N 34°20' E 132°22'0 0.0
2014-Jul-22 17:33N 34°20' E 132°22'0 0.0
2014-Jul-22 16:33N 34°20' E 132°22'0 0.0
2014-Jul-22 15:33N 34°20' E 132°22'0 0.0
2014-Jul-22 14:30N 34°20' E 132°22'0 0.0
2014-Jul-22 13:33N 34°20' E 132°22'0 0.0
2014-Jul-22 12:33N 34°20' E 132°22'0 0.1
2014-Jul-22 11:33N 34°20' E 132°22'  
Track history (hours):
 
Tides and Currents Weather Stations Pressure Air Temp Water Temp Dewpoint Dewpoint Depression Visibility Wind Speed Wind Dir Waves Ship Positions

Nichioh Maru

Last reported at 2014-Jul-31 08:28 UTC. Time now 2014-Jul-31 09:34 UTC.
Position N 34°37' E 135°16'.

Length 170 m; draft 6.5 m.

Type: Cargo ship. MMSI: 431003232.

Date/timePositionNaut miles runAvg speedWind from/ knotsBaromVisibWave heightAir tempDewpointWater temp
2014-Jul-31 08:28N 34°37' E 135°16'0 0.1
2014-Jul-31 07:29N 34°37' E 135°16'1617.1
2014-Jul-31 06:33N 34°37' E 134°57'117 9.0
2014-Jul-30 17:33N 33°58' E 132°44'20 1.3
2014-Jul-30 02:32N 34°08' E 132°23'1312.8
2014-Jul-30 01:31N 34°21' E 132°22'0 0.0
2014-Jul-30 00:28N 34°21' E 132°22'0 0.0
2014-Jul-29 23:28N 34°21' E 132°22'0 0.0
2014-Jul-29 22:31N 34°21' E 132°22'0 0.0
2014-Jul-29 21:31N 34°21' E 132°22'1 0.8
2014-Jul-29 20:33N 34°20' E 132°22'0 0.1
2014-Jul-29 19:33N 34°20' E 132°22'0 0.0
2014-Jul-29 18:33N 34°20' E 132°22'0 0.0
2014-Jul-29 17:33N 34°20' E 132°22'0 0.0
2014-Jul-29 16:33N 34°20' E 132°22'0 0.0
2014-Jul-29 15:33N 34°20' E 132°22'0 0.0
2014-Jul-29 14:33N 34°20' E 132°22'0 0.0
2014-Jul-29 13:33N 34°20' E 132°22'0 0.0
2014-Jul-29 12:33N 34°20' E 132°22'0 0.0
2014-Jul-29 11:33N 34°20' E 132°22'4 3.7
2014-Jul-29 10:34N 34°16' E 132°21'1817.1
2014-Jul-29 09:31N 34°03' E 132°35'123 4.9
2014-Jul-28 08:33N 34°37' E 134°58'1414.3
2014-Jul-28 07:34N 34°40' E 135°15'2 1.4
2014-Jul-28 06:16N 34°41' E 135°13'0 0.0
2014-Jul-28 05:28N 34°41' E 135°13'0 0.0
2014-Jul-28 04:16N 34°41' E 135°13'0 0.0
2014-Jul-28 03:22N 34°41' E 135°13'0 0.0
2014-Jul-28 02:33N 34°41' E 135°13'4 4.4
2014-Jul-28 01:33N 34°37' E 135°16'1615.6
2014-Jul-28 00:33N 34°24' E 135°05'1717.4
2014-Jul-27 23:33N 34°08' E 134°59'171 6.4
2014-Jul-26 21:03N 34°31' E 138°24'610.5
2014-Jul-26 20:27N 34°32' E 138°32'48 9.8
2014-Jul-26 15:31N 34°55' E 139°24'8 8.1
2014-Jul-26 14:33N 34°59' E 139°32'10 9.8
2014-Jul-26 13:34N 35°05' E 139°41'1110.9
2014-Jul-26 12:33N 35°15' E 139°46'1211.6
2014-Jul-26 11:33N 35°26' E 139°45'4 3.9
2014-Jul-26 10:31N 35°30' E 139°46'0 0.0
2014-Jul-26 09:31N 35°30' E 139°46'0 0.0
2014-Jul-26 08:31N 35°30' E 139°46'0 0.0
2014-Jul-26 07:31N 35°30' E 139°46'0 0.0
2014-Jul-26 06:31N 35°30' E 139°46'0 0.0
2014-Jul-26 05:33N 35°30' E 139°46'8 7.8
2014-Jul-26 04:34N 35°23' E 139°45'7 6.4
2014-Jul-26 03:32N 35°19' E 139°39'0 0.0
2014-Jul-26 02:32N 35°19' E 139°39'0 0.0
2014-Jul-26 01:32N 35°19' E 139°39'0 0.0
2014-Jul-26 00:33N 35°19' E 139°39'9 8.5
2014-Jul-25 23:33N 35°13' E 139°47'7 6.3
2014-Jul-25 22:31N 35°07' E 139°46'8 7.9
2014-Jul-25 21:33N 35°01' E 139°40'1515.1
2014-Jul-25 20:33N 34°53' E 139°25'2019.2
2014-Jul-25 19:30N 34°38' E 139°08'1818.5
2014-Jul-25 18:31N 34°27' E 138°50'19314.8
2014-Jul-25 05:30N 34°01' E 134°59'1819.1
2014-Jul-25 04:33N 34°18' E 134°59'1918.7
2014-Jul-25 03:33N 34°34' E 135°12'7 6.5
2014-Jul-25 02:32N 34°41' E 135°13'0 0.0
2014-Jul-25 01:32N 34°41' E 135°13'0 0.0
2014-Jul-25 00:32N 34°41' E 135°13'0 0.0
2014-Jul-24 23:32N 34°41' E 135°13'1 0.9
2014-Jul-24 22:33N 34°40' E 135°14'4 3.9
2014-Jul-24 21:31N 34°36' E 135°16'0 0.0
2014-Jul-24 20:28N 34°36' E 135°16'0 0.0
2014-Jul-24 19:28N 34°36' E 135°16'0 0.0
2014-Jul-24 18:25N 34°36' E 135°16'0 0.0
2014-Jul-24 17:28N 34°36' E 135°16'0 0.0
2014-Jul-24 16:28N 34°36' E 135°16'0 0.0
2014-Jul-24 15:28N 34°36' E 135°16'0 0.0
2014-Jul-24 14:34N 34°36' E 135°16'0 0.0
2014-Jul-24 12:28N 34°37' E 135°16'0 0.0
2014-Jul-24 11:28N 34°37' E 135°16'0 0.0
2014-Jul-24 10:34N 34°37' E 135°16'0 0.0
2014-Jul-24 09:33N 34°37' E 135°16'1211.7
2014-Jul-24 08:33N 34°37' E 135°02'120 9.0
2014-Jul-23 19:18N 33°59' E 132°44'2312.3
2014-Jul-23 17:26N 33°44' E 132°23'8 0.5
2014-Jul-23 03:07N 33°50' E 132°17'1219.3
2014-Jul-23 02:28N 33°57' E 132°29'1819.5
2014-Jul-23 01:33N 34°14' E 132°21'7 7.2
2014-Jul-23 00:31N 34°21' E 132°22'0 0.0
2014-Jul-22 23:31N 34°21' E 132°22'0 0.0
2014-Jul-22 22:31N 34°21' E 132°22'0 0.0
2014-Jul-22 21:31N 34°21' E 132°22'1 0.8
2014-Jul-22 20:33N 34°20' E 132°22'0 0.0
2014-Jul-22 19:33N 34°20' E 132°22'0 0.0
2014-Jul-22 18:33N 34°20' E 132°22'0 0.0
2014-Jul-22 17:33N 34°20' E 132°22'0 0.0
2014-Jul-22 16:33N 34°20' E 132°22'0 0.0
2014-Jul-22 15:33N 34°20' E 132°22'0 0.0
2014-Jul-22 14:30N 34°20' E 132°22'0 0.0
2014-Jul-22 13:33N 34°20' E 132°22'0 0.0
2014-Jul-22 12:33N 34°20' E 132°22'0 0.1
2014-Jul-22 11:33N 34°20' E 132°22'  

Dump ship's entire track history